createdAt,value
2022-08-05T00:00:56.433Z,22.70
2022-08-05T00:06:05.094Z,22.70
2022-08-05T00:11:00.355Z,22.70
2022-08-05T00:16:00.337Z,22.70
2022-08-05T00:20:59.448Z,22.70
2022-08-05T00:25:58.594Z,22.70
2022-08-05T00:30:57.467Z,22.70
2022-08-05T00:36:16.428Z,22.70
2022-08-05T00:40:59.699Z,22.70
2022-08-05T00:45:58.610Z,22.70
2022-08-05T00:50:57.628Z,22.70
2022-08-05T00:55:56.663Z,22.60
2022-08-05T01:00:56.363Z,22.60
2022-08-05T01:05:55.679Z,22.50
2022-08-05T01:10:55.520Z,22.50
2022-08-05T01:15:56.580Z,22.50
2022-08-05T01:20:57.637Z,22.40
2022-08-05T01:25:56.632Z,22.30
2022-08-05T01:30:55.656Z,22.20
2022-08-05T01:35:54.672Z,22.00
2022-08-05T01:40:55.842Z,21.80
2022-08-05T01:45:57.116Z,21.70
2022-08-05T01:50:56.626Z,21.70
2022-08-05T01:55:55.718Z,21.70
2022-08-05T02:00:56.690Z,21.60
2022-08-05T02:05:59.657Z,21.60
2022-08-05T02:10:58.548Z,21.50
2022-08-05T02:15:57.517Z,21.40
2022-08-05T02:20:58.862Z,21.20
2022-08-05T02:25:57.684Z,21.10
2022-08-05T02:30:57.721Z,20.90
2022-08-05T02:36:01.132Z,20.80
2022-08-05T02:40:59.564Z,20.70
2022-08-05T02:46:01.105Z,20.70
2022-08-05T02:51:01.549Z,20.70
2022-08-05T02:56:02.075Z,20.70
2022-08-05T03:01:02.034Z,20.70
2022-08-05T03:06:56.561Z,20.60
2022-08-05T03:11:53.659Z,20.50
2022-08-05T03:16:03.475Z,20.40
2022-08-05T03:21:02.581Z,20.20
2022-08-05T03:26:04.382Z,20.00
2022-08-05T03:31:03.577Z,20.00
2022-08-05T03:36:02.547Z,20.00
2022-08-05T03:41:03.965Z,20.20
2022-08-05T03:46:04.595Z,20.30
2022-08-05T03:52:37.864Z,20.30
2022-08-05T03:56:11.922Z,20.40
2022-08-05T04:01:05.641Z,20.50
2022-08-05T04:06:08.649Z,20.50
2022-08-05T04:11:08.671Z,20.50
2022-08-05T04:16:08.512Z,20.60
2022-08-05T04:21:10.874Z,20.70
2022-08-05T04:26:10.612Z,20.80
2022-08-05T04:31:11.573Z,20.90
2022-08-05T04:36:16.103Z,20.90
2022-08-05T04:41:11.793Z,20.90
2022-08-05T04:46:13.609Z,20.90
2022-08-05T04:51:14.763Z,20.80
2022-08-05T04:56:35.005Z,20.70
2022-08-05T05:01:15.640Z,20.60
2022-08-05T05:06:38.738Z,20.50
2022-08-05T05:11:17.849Z,20.40
2022-08-05T05:16:19.715Z,20.60
2022-08-05T05:21:18.598Z,20.70
2022-08-05T05:26:17.538Z,20.80
2022-08-05T05:31:16.647Z,20.90
2022-08-05T05:36:17.958Z,20.90
2022-08-05T05:41:18.751Z,20.90
2022-08-05T05:46:18.840Z,21.20
2022-08-05T05:51:17.655Z,21.40
2022-08-05T05:56:16.659Z,21.50
2022-08-05T06:01:17.612Z,21.60
2022-08-05T06:06:18.879Z,21.80
2022-08-05T06:11:19.702Z,21.90
2022-08-05T06:16:28.884Z,22.00
2022-08-05T06:21:19.607Z,21.90
2022-08-05T06:26:21.338Z,21.80
2022-08-05T06:31:22.162Z,21.50
2022-08-05T06:36:20.811Z,21.30
2022-08-05T06:41:21.715Z,21.30
2022-08-05T06:46:21.606Z,21.20
2022-08-05T06:51:25.249Z,21.10
2022-08-05T06:56:26.535Z,20.90
2022-08-05T07:01:23.067Z,20.80
2022-08-05T07:06:23.597Z,20.60
2022-08-05T07:11:25.443Z,20.50
2022-08-05T07:18:00.160Z,20.70
2022-08-05T07:22:00.896Z,20.80
2022-08-05T07:26:43.730Z,20.80
2022-08-05T07:31:54.409Z,20.80
2022-08-05T07:36:45.727Z,20.70
2022-08-05T07:42:13.689Z,20.60
2022-08-05T07:46:49.350Z,20.40
2022-08-05T07:51:54.473Z,20.00
2022-08-05T07:57:01.197Z,19.90
2022-08-05T08:01:52.412Z,19.80
2022-08-05T08:06:51.691Z,19.70
2022-08-05T08:11:59.041Z,19.70
2022-08-05T08:16:53.349Z,19.60
2022-08-05T08:21:52.699Z,19.40
2022-08-05T08:26:52.348Z,19.30
2022-08-05T08:31:51.825Z,19.20
2022-08-05T08:36:56.663Z,19.20
2022-08-05T08:41:59.864Z,19.20
2022-08-05T08:46:53.691Z,19.20
2022-08-05T08:52:03.909Z,19.40
2022-08-05T08:56:53.775Z,19.60
2022-08-05T09:01:57.650Z,19.80
2022-08-05T09:06:55.786Z,20.10
2022-08-05T09:11:57.761Z,20.30
2022-08-05T09:16:55.764Z,20.40
2022-08-05T09:22:22.561Z,20.60
2022-08-05T09:27:00.807Z,20.60
2022-08-05T09:32:40.126Z,20.60
2022-08-05T09:37:02.959Z,20.80
2022-08-05T09:42:04.074Z,21.00
2022-08-05T09:47:02.718Z,21.20
2022-08-05T09:52:03.883Z,21.30
2022-08-05T09:57:03.945Z,21.60
2022-08-05T10:02:05.503Z,21.60
2022-08-05T10:07:20.865Z,21.30
2022-08-05T10:12:28.021Z,21.20
2022-08-05T10:17:10.843Z,21.30
2022-08-05T10:22:15.768Z,21.70
2022-08-05T10:27:14.504Z,21.80
2022-08-05T10:32:55.080Z,22.30
2022-08-05T10:37:15.773Z,23.20
2022-08-05T10:42:15.221Z,24.10
2022-08-05T10:47:25.913Z,24.50
2022-08-05T10:52:17.837Z,24.30
2022-08-05T10:57:17.969Z,24.30
2022-08-05T11:02:38.519Z,24.60
2022-08-05T11:07:18.645Z,24.80
2022-08-05T11:12:19.895Z,25.00
2022-08-05T11:17:57.253Z,25.10
2022-08-05T11:22:20.000Z,24.70
2022-08-05T11:27:19.188Z,25.60
2022-08-05T11:32:17.898Z,25.90
2022-08-05T11:38:28.066Z,25.70
2022-08-05T11:42:18.805Z,25.40
2022-08-05T11:47:21.956Z,25.60
2022-08-05T11:52:19.348Z,25.50
2022-08-05T11:58:07.850Z,25.50
2022-08-05T12:02:30.600Z,25.70
2022-08-05T12:08:08.645Z,25.80
2022-08-05T12:12:23.184Z,25.90
2022-08-05T12:17:42.214Z,26.10
2022-08-05T12:22:25.057Z,27.00
2022-08-05T12:27:26.210Z,26.90
2022-08-05T12:32:26.948Z,26.70
2022-08-05T12:37:29.823Z,26.70
2022-08-05T12:42:26.997Z,27.10
2022-08-05T12:47:26.400Z,27.00
2022-08-05T12:52:30.412Z,27.40
2022-08-05T12:57:28.327Z,27.50
2022-08-05T13:02:30.276Z,27.20
2022-08-05T13:07:57.448Z,26.70
2022-08-05T13:12:31.113Z,26.40
2022-08-05T13:17:32.058Z,26.50
2022-08-05T13:22:30.973Z,27.20
2022-08-05T13:27:37.345Z,27.50
2022-08-05T13:32:33.990Z,27.50
2022-08-05T13:37:34.795Z,27.60
2022-08-05T13:42:33.200Z,27.60
2022-08-05T13:47:36.017Z,26.80
2022-08-05T13:52:35.306Z,26.00
2022-08-05T13:57:50.556Z,25.20
2022-08-05T14:02:36.164Z,25.00
2022-08-05T14:07:59.498Z,25.10
2022-08-05T14:12:36.197Z,24.70
2022-08-05T14:17:35.041Z,24.60
2022-08-05T14:22:34.711Z,24.50
2022-08-05T14:27:34.083Z,24.70
2022-08-05T14:32:33.892Z,25.10
2022-08-05T14:37:45.508Z,25.50
2022-08-05T14:42:36.031Z,25.90
2022-08-05T14:48:05.335Z,26.30
2022-08-05T14:52:52.680Z,26.20
2022-08-05T14:57:55.885Z,25.80
2022-08-05T15:02:39.111Z,25.60
2022-08-05T15:08:05.341Z,25.70
2022-08-05T15:13:00.627Z,25.60
2022-08-05T15:17:46.436Z,25.60
2022-08-05T15:22:42.180Z,25.80
2022-08-05T15:27:51.880Z,25.90
2022-08-05T15:32:44.182Z,26.10
2022-08-05T15:38:33.494Z,26.30
2022-08-05T15:42:58.258Z,26.30
2022-08-05T15:47:45.140Z,26.30
2022-08-05T15:52:53.572Z,25.90
2022-08-05T15:57:45.766Z,25.80
2022-08-05T16:02:49.230Z,26.10
2022-08-05T16:07:49.156Z,26.70
2022-08-05T16:12:49.000Z,27.40
2022-08-05T16:17:58.092Z,27.00
2022-08-05T16:22:51.078Z,26.50
2022-08-05T16:28:02.130Z,25.90
2022-08-05T16:32:51.265Z,25.70
2022-08-05T16:38:10.587Z,25.40
2022-08-05T16:42:53.403Z,25.20
2022-08-05T16:47:54.372Z,25.10
2022-08-05T16:52:53.126Z,25.10
2022-08-05T16:58:00.190Z,25.30
2022-08-05T17:02:56.138Z,25.00
2022-08-05T17:07:55.280Z,24.70
2022-08-05T17:12:55.491Z,24.90
2022-08-05T17:17:55.466Z,25.30
2022-08-05T17:22:57.064Z,25.10
2022-08-05T17:27:58.332Z,24.70
2022-08-05T17:32:58.347Z,24.60
2022-08-05T17:38:04.782Z,24.70
2022-08-05T17:42:58.180Z,24.80
2022-08-05T17:47:58.233Z,24.80
2022-08-05T17:52:58.529Z,24.70
2022-08-05T17:58:00.087Z,24.40
2022-08-05T18:03:00.394Z,24.10
2022-08-05T18:07:59.174Z,23.80
2022-08-05T18:12:58.300Z,23.60
2022-08-05T18:18:00.524Z,23.40
2022-08-05T18:22:58.262Z,23.20
2022-08-05T18:28:01.507Z,22.90
2022-08-05T18:33:01.253Z,22.70
2022-08-05T18:38:00.210Z,22.50
2022-08-05T18:42:59.552Z,22.40
2022-08-05T18:47:59.252Z,22.20
2022-08-05T18:52:59.283Z,22.10
2022-08-05T18:58:03.065Z,22.00
2022-08-05T19:03:03.797Z,21.80
2022-08-05T19:08:02.107Z,21.60
2022-08-05T19:13:02.452Z,21.50
2022-08-05T19:18:10.356Z,21.30
2022-08-05T19:23:07.664Z,21.20
2022-08-05T19:28:04.254Z,21.10
2022-08-05T19:33:05.109Z,20.90
2022-08-05T19:38:06.758Z,20.70
2022-08-05T19:43:07.220Z,20.50
2022-08-05T19:48:06.476Z,20.30
2022-08-05T19:53:09.322Z,20.20
2022-08-05T19:58:28.220Z,20.10
2022-08-05T20:03:09.079Z,20.00
2022-08-05T20:08:08.442Z,19.90
2022-08-05T20:13:08.450Z,19.80
2022-08-05T20:18:11.006Z,19.70
2022-08-05T20:23:09.372Z,19.60
2022-08-05T20:28:13.704Z,19.50
2022-08-05T20:33:11.270Z,19.40
2022-08-05T20:38:20.211Z,19.20
2022-08-05T20:43:13.369Z,19.10
2022-08-05T20:48:12.249Z,19.00
2022-08-05T20:53:15.960Z,19.00
2022-08-05T20:58:15.267Z,18.90
2022-08-05T21:03:16.689Z,18.90
2022-08-05T21:08:15.187Z,18.80
2022-08-05T21:13:26.476Z,18.80
2022-08-05T21:18:16.492Z,18.80
2022-08-05T21:23:15.391Z,18.80
2022-08-05T21:28:18.408Z,18.80
2022-08-05T21:33:22.296Z,18.60
2022-08-05T21:38:16.244Z,18.50
2022-08-05T21:43:24.222Z,18.40
2022-08-05T21:48:19.385Z,18.30
2022-08-05T21:53:18.396Z,18.30
2022-08-05T21:58:17.405Z,18.20
2022-08-05T22:03:18.470Z,18.10
2022-08-05T22:08:23.943Z,18.00
2022-08-05T22:14:06.328Z,18.00
2022-08-05T22:18:22.532Z,17.80
2022-08-05T22:24:00.784Z,17.70
2022-08-05T22:28:42.384Z,17.60
2022-08-05T22:33:57.105Z,17.60
2022-08-05T22:38:42.769Z,17.50
2022-08-05T22:43:41.460Z,17.40
2022-08-05T22:48:40.492Z,17.30
2022-08-05T22:53:40.520Z,17.30
2022-08-05T22:58:39.623Z,17.20
2022-08-05T23:03:58.156Z,17.20
2022-08-05T23:08:41.501Z,17.20
2022-08-05T23:13:40.462Z,17.20
2022-08-05T23:18:39.465Z,17.10
2022-08-05T23:23:40.676Z,17.10
2022-08-05T23:28:39.581Z,17.00
2022-08-05T23:34:04.849Z,17.00
2022-08-05T23:38:44.616Z,16.90
2022-08-05T23:44:05.208Z,16.80
2022-08-05T23:48:44.588Z,16.80
2022-08-05T23:53:46.961Z,16.70
2022-08-05T23:58:46.502Z,16.60
